createdAt,value
2023-01-26T00:03:58.451Z,90
2023-01-26T00:08:57.716Z,90
2023-01-26T00:13:57.293Z,90
2023-01-26T00:18:54.664Z,90
2023-01-26T00:23:54.688Z,90
2023-01-26T00:28:54.709Z,90
2023-01-26T00:33:54.059Z,90
2023-01-26T00:38:53.925Z,89
2023-01-26T00:43:53.112Z,89
2023-01-26T00:48:53.184Z,89
2023-01-26T00:53:52.966Z,89
2023-01-26T00:58:51.736Z,89
2023-01-26T01:03:52.180Z,89
2023-01-26T01:08:52.421Z,89
2023-01-26T01:13:49.719Z,89
2023-01-26T01:18:50.437Z,89
2023-01-26T01:23:49.763Z,89
2023-01-26T01:28:50.479Z,89
2023-01-26T01:33:46.792Z,89
2023-01-26T01:38:46.585Z,89
2023-01-26T01:43:46.153Z,89
2023-01-26T01:48:45.697Z,89
2023-01-26T01:53:42.854Z,89
2023-01-26T01:58:42.674Z,89
2023-01-26T02:03:42.924Z,89
2023-01-26T02:08:43.581Z,89
2023-01-26T02:13:42.959Z,89
2023-01-26T02:18:42.812Z,89
2023-01-26T02:23:42.198Z,89
2023-01-26T02:28:42.015Z,89
2023-01-26T02:33:42.816Z,89
2023-01-26T02:38:40.048Z,89
2023-01-26T02:43:39.564Z,89
2023-01-26T02:48:38.485Z,89
2023-01-26T02:53:38.137Z,89
2023-01-26T02:58:38.034Z,89
2023-01-26T02:59:59.954Z,89
2023-01-26T03:05:01.004Z,89
2023-01-26T03:09:56.999Z,89
2023-01-26T03:14:57.069Z,89
2023-01-26T03:19:56.323Z,90
2023-01-26T03:24:56.045Z,90
2023-01-26T03:29:53.619Z,90
2023-01-26T03:34:53.530Z,90
2023-01-26T03:39:53.444Z,89
2023-01-26T03:44:53.187Z,90
2023-01-26T03:49:52.679Z,90
2023-01-26T03:54:51.837Z,90
2023-01-26T03:59:12.227Z,90
2023-01-26T04:04:11.951Z,90
2023-01-26T04:09:12.901Z,90
2023-01-26T04:14:20.095Z,90
2023-01-26T04:19:19.983Z,90
2023-01-26T04:24:19.417Z,90
2023-01-26T04:29:19.912Z,90
2023-01-26T04:34:21.442Z,90
2023-01-26T04:39:18.040Z,90
2023-01-26T04:44:17.266Z,90
2023-01-26T04:49:17.777Z,91
2023-01-26T04:54:15.775Z,91
2023-01-26T04:59:04.136Z,91
2023-01-26T05:04:03.230Z,92
2023-01-26T05:09:02.763Z,92
2023-01-26T05:14:00.050Z,93
2023-01-26T05:18:59.706Z,93
2023-01-26T05:24:00.239Z,93
2023-01-26T05:28:59.601Z,93
2023-01-26T05:33:59.166Z,94
2023-01-26T05:38:58.535Z,94
2023-01-26T05:43:58.932Z,94
2023-01-26T05:48:58.901Z,94
2023-01-26T05:53:56.383Z,95
2023-01-26T05:58:55.936Z,95
2023-01-26T06:03:56.712Z,95
2023-01-26T06:08:57.281Z,95
2023-01-26T06:13:54.854Z,95
2023-01-26T06:18:55.247Z,95
2023-01-26T06:23:54.703Z,96
2023-01-26T06:28:54.133Z,96
2023-01-26T06:33:53.635Z,96
2023-01-26T06:38:56.943Z,96
2023-01-26T06:43:53.250Z,96
2023-01-26T06:48:54.384Z,96
2023-01-26T06:53:50.964Z,96
2023-01-26T06:58:50.908Z,96
2023-01-26T07:03:50.073Z,96
2023-01-26T07:08:49.960Z,96
2023-01-26T07:13:47.567Z,97
2023-01-26T07:18:47.233Z,97
2023-01-26T07:23:46.777Z,97
2023-01-26T07:28:47.857Z,97
2023-01-26T07:33:44.091Z,97
2023-01-26T07:38:44.048Z,97
2023-01-26T07:43:43.689Z,97
2023-01-26T07:48:43.467Z,97
2023-01-26T07:53:42.288Z,97
2023-01-26T07:58:42.601Z,97
2023-01-26T08:04:33.973Z,97
2023-01-26T08:08:42.006Z,97
2023-01-26T08:13:41.956Z,97
2023-01-26T08:18:42.911Z,97
2023-01-26T08:23:39.856Z,96
2023-01-26T08:28:39.883Z,96
2023-01-26T08:33:38.935Z,96
2023-01-26T08:38:38.924Z,96
2023-01-26T08:43:36.083Z,96
2023-01-26T08:48:35.360Z,96
2023-01-26T08:53:34.960Z,96
2023-01-26T08:58:36.233Z,96
2023-01-26T08:59:56.671Z,96
2023-01-26T09:04:56.724Z,96
2023-01-26T09:09:56.070Z,96
2023-01-26T09:14:56.174Z,96
2023-01-26T09:19:53.369Z,95
2023-01-26T09:24:53.047Z,95
2023-01-26T09:29:53.426Z,95
2023-01-26T09:34:54.659Z,95
2023-01-26T09:39:50.995Z,95
2023-01-26T09:44:51.064Z,95
2023-01-26T09:49:50.959Z,94
2023-01-26T09:54:50.054Z,94
2023-01-26T09:58:52.164Z,94
2023-01-26T10:03:52.203Z,93
2023-01-26T10:08:51.838Z,93
2023-01-26T10:13:49.628Z,92
2023-01-26T10:18:49.008Z,92
2023-01-26T10:23:49.600Z,92
2023-01-26T10:28:48.874Z,92
2023-01-26T10:33:48.287Z,91
2023-01-26T10:38:47.682Z,91
2023-01-26T10:43:47.991Z,91
2023-01-26T10:48:47.336Z,91
2023-01-26T10:53:48.660Z,91
2023-01-26T11:03:44.883Z,91
2023-01-26T11:08:43.994Z,91
2023-01-26T11:13:43.864Z,92
2023-01-26T11:18:41.485Z,92
2023-01-26T11:23:41.015Z,92
2023-01-26T11:28:40.218Z,92
2023-01-26T11:33:38.988Z,93
2023-01-26T11:38:38.990Z,93
2023-01-26T11:43:39.019Z,93
2023-01-26T11:48:39.846Z,93
2023-01-26T11:53:36.496Z,94
2023-01-26T11:58:35.963Z,94
2023-01-26T11:59:57.641Z,94
2023-01-26T12:04:57.559Z,94
2023-01-26T12:09:54.746Z,94
2023-01-26T12:14:54.652Z,94
2023-01-26T12:19:54.873Z,94
2023-01-26T12:25:19.642Z,94
2023-01-26T12:29:53.633Z,93
2023-01-26T12:34:53.519Z,93
2023-01-26T12:39:53.296Z,93
2023-01-26T12:44:53.137Z,92
2023-01-26T12:49:54.058Z,91
2023-01-26T12:54:50.053Z,90
2023-01-26T12:59:48.999Z,89
2023-01-26T13:04:20.555Z,87
2023-01-26T13:09:19.868Z,85
2023-01-26T13:14:19.960Z,84
2023-01-26T13:19:18.605Z,84
2023-01-26T13:24:19.496Z,83
2023-01-26T13:29:19.147Z,83
2023-01-26T13:34:18.232Z,83
2023-01-26T13:39:18.131Z,83
2023-01-26T13:44:18.313Z,82
2023-01-26T13:49:18.830Z,82
2023-01-26T13:54:15.583Z,82
2023-01-26T13:59:01.217Z,81
2023-01-26T14:04:01.017Z,81
2023-01-26T14:08:59.615Z,81
2023-01-26T14:13:59.459Z,80
2023-01-26T14:18:59.016Z,80
2023-01-26T14:23:59.133Z,80
2023-01-26T14:29:00.059Z,81
2023-01-26T14:33:56.237Z,81
2023-01-26T14:38:56.284Z,81
2023-01-26T14:43:59.931Z,81
2023-01-26T14:48:54.193Z,81
2023-01-26T14:53:53.965Z,81
2023-01-26T14:58:54.503Z,82
2023-01-26T15:03:52.873Z,82
2023-01-26T15:08:52.843Z,82
2023-01-26T15:13:52.152Z,83
2023-01-26T15:18:52.056Z,83
2023-01-26T15:23:49.038Z,83
2023-01-26T15:28:48.485Z,83
2023-01-26T15:33:48.908Z,83
2023-01-26T15:38:48.280Z,83
2023-01-26T15:43:47.466Z,83
2023-01-26T15:48:47.004Z,83
2023-01-26T15:53:46.820Z,83
2023-01-26T15:58:46.359Z,83
2023-01-26T16:03:47.530Z,83
2023-01-26T16:08:43.800Z,83
2023-01-26T16:14:01.301Z,83
2023-01-26T16:18:42.999Z,83
2023-01-26T16:23:42.698Z,83
2023-01-26T16:28:42.035Z,83
2023-01-26T16:33:42.226Z,83
2023-01-26T16:38:41.275Z,83
2023-01-26T16:43:40.041Z,83
2023-01-26T16:48:39.548Z,83
2023-01-26T16:53:38.860Z,83
2023-01-26T16:58:38.232Z,82
2023-01-26T17:03:37.835Z,82
2023-01-26T17:08:36.990Z,82
2023-01-26T17:13:37.193Z,82
2023-01-26T17:18:36.553Z,81
2023-01-26T17:23:37.672Z,81
2023-01-26T17:28:34.145Z,81
2023-01-26T17:33:33.871Z,80
2023-01-26T17:38:33.124Z,80
2023-01-26T17:43:34.016Z,80
2023-01-26T17:48:31.635Z,79
2023-01-26T17:53:31.910Z,79
2023-01-26T17:58:30.726Z,79
2023-01-26T17:59:54.160Z,79
2023-01-26T18:04:50.699Z,79
2023-01-26T18:09:50.454Z,79
2023-01-26T18:14:49.826Z,80
2023-01-26T18:19:49.305Z,80
2023-01-26T18:24:49.159Z,80
2023-01-26T18:29:48.078Z,80
2023-01-26T18:34:48.230Z,80
2023-01-26T18:39:45.439Z,80
2023-01-26T18:44:45.662Z,80
2023-01-26T18:49:45.640Z,80
2023-01-26T18:54:45.289Z,81
2023-01-26T18:58:52.744Z,81
2023-01-26T19:03:52.719Z,81
2023-01-26T19:08:52.170Z,81
2023-01-26T19:13:52.828Z,81
2023-01-26T19:18:50.224Z,81
2023-01-26T19:23:49.642Z,81
2023-01-26T19:28:52.055Z,81
2023-01-26T19:33:49.656Z,81
2023-01-26T19:38:48.932Z,81
2023-01-26T19:43:48.315Z,82
2023-01-26T19:48:48.328Z,82
2023-01-26T19:53:47.903Z,82
2023-01-26T19:58:49.065Z,82
2023-01-26T20:03:46.438Z,82
2023-01-26T20:08:46.968Z,83
2023-01-26T20:13:48.023Z,83
2023-01-26T20:18:44.075Z,83
2023-01-26T20:23:55.933Z,83
2023-01-26T20:28:43.174Z,83
2023-01-26T20:33:43.255Z,84
2023-01-26T20:38:40.505Z,84
2023-01-26T20:43:57.320Z,84
2023-01-26T20:48:40.311Z,84
2023-01-26T20:53:40.437Z,84
2023-01-26T20:58:36.760Z,84
2023-01-26T20:59:58.040Z,84
2023-01-26T21:04:57.672Z,85
2023-01-26T21:09:56.972Z,85
2023-01-26T21:14:54.425Z,85
2023-01-26T21:19:54.047Z,85
2023-01-26T21:24:54.596Z,85
2023-01-26T21:29:53.816Z,85
2023-01-26T21:34:53.121Z,85
2023-01-26T21:39:52.465Z,85
2023-01-26T21:44:53.314Z,85
2023-01-26T21:49:52.134Z,85
2023-01-26T21:54:52.144Z,85
2023-01-26T21:59:11.998Z,85
2023-01-26T22:04:22.398Z,85
2023-01-26T22:09:20.799Z,85
2023-01-26T22:14:20.255Z,85
2023-01-26T22:19:20.220Z,85
2023-01-26T22:24:18.512Z,86
2023-01-26T22:29:17.671Z,86
2023-01-26T22:34:18.245Z,86
2023-01-26T22:39:16.930Z,86
2023-01-26T22:44:17.247Z,86
2023-01-26T22:49:16.645Z,86
2023-01-26T22:54:18.323Z,86
2023-01-26T22:59:01.566Z,86
2023-01-26T23:04:00.778Z,87
2023-01-26T23:08:59.706Z,87
2023-01-26T23:14:00.560Z,87
2023-01-26T23:18:56.957Z,87
2023-01-26T23:23:56.889Z,87
2023-01-26T23:28:57.540Z,88
2023-01-26T23:33:57.012Z,88
2023-01-26T23:38:56.599Z,88
2023-01-26T23:43:56.414Z,88
2023-01-26T23:48:55.969Z,89
2023-01-26T23:53:53.431Z,89
2023-01-26T23:58:53.367Z,89
